Time;durP1;ratioP1;P1;durP2;ratioP2;P2;SDS_P1;SDS_P2;PMS_P1;PMS_P2;Temp;Humidity;BMP_temperature;BMP_pressure;BME280_temperature;BME280_humidity;BME280_pressure;Samples;Min_cycle;Max_cycle;Signal;HPM_P1;HPM_P2
2023/03/29 00:02:18;;;;;;;4.17;3.77;;;5.10;67.50;;;;;;5111207;28;20194;-67
2023/03/29 00:04:45;;;;;;;7.47;4.30;;;5.10;74.60;;;;;;5100170;28;20248;-67
2023/03/29 00:07:13;;;;;;;5.27;4.20;;;5.20;66.60;;;;;;5109844;28;20843;-71
2023/03/29 00:09:41;;;;;;;6.60;3.93;;;5.10;39.90;;;;;;5111300;28;20217;-67
2023/03/29 00:12:09;;;;;;;4.60;3.83;;;5.10;50.30;;;;;;5102465;28;20212;-67
2023/03/29 00:14:36;;;;;;;4.83;3.43;;;5.00;52.80;;;;;;5088457;28;20208;-67
2023/03/29 00:17:04;;;;;;;5.23;3.50;;;5.00;58.70;;;;;;5101540;28;20200;-67
2023/03/29 00:19:34;;;;;;;6.13;3.50;;;5.00;62.20;;;;;;5080000;28;20201;-68
2023/03/29 00:22:05;;;;;;;3.47;3.10;;;5.10;76.30;;;;;;5061228;28;20212;-69
2023/03/29 00:24:32;;;;;;;6.23;3.53;;;5.10;55.70;;;;;;5109464;28;20189;-69
2023/03/29 00:26:59;;;;;;;3.70;3.23;;;5.00;32.20;;;;;;5099479;28;20537;-68
2023/03/29 00:29:27;;;;;;;4.77;3.43;;;5.00;38.10;;;;;;5090906;28;20208;-68
2023/03/29 00:31:54;;;;;;;5.33;3.57;;;5.00;25.80;;;;;;5083200;28;20194;-69
2023/03/29 00:34:29;;;;;;;4.03;3.10;;;5.00;35.30;;;;;;5082971;28;20625;-68
2023/03/29 00:36:57;;;;;;;4.87;3.13;;;5.00;13.90;;;;;;5089137;28;20669;-70
2023/03/29 00:39:26;;;;;;;3.90;3.20;;;5.00;29.40;;;;;;5082028;28;20198;-69
2023/03/29 00:41:54;;;;;;;5.27;3.40;;;5.10;24.60;;;;;;5106824;28;20190;-69
2023/03/29 00:44:55;;;;;;;5.20;3.67;;;5.00;11.60;;;;;;5106925;28;20201;-69
2023/03/29 00:47:47;;;;;;;4.93;3.33;;;5.00;24.50;;;;;;5088593;28;20212;-69
2023/03/29 00:50:28;;;;;;;4.63;3.60;;;5.00;14.20;;;;;;5068229;28;20465;-69
2023/03/29 00:53:16;;;;;;;5.10;3.60;;;5.00;28.30;;;;;;5108965;28;20197;-71
2023/03/29 00:55:48;;;;;;;6.37;4.10;;;5.00;20.80;;;;;;5090610;28;20242;-70
2023/03/29 00:58:25;;;;;;;5.27;3.83;;;5.10;16.90;;;;;;5095088;28;20196;-70
2023/03/29 01:01:07;;;;;;;5.43;3.53;;;5.00;14.50;;;;;;5105769;28;20251;-72
2023/03/29 01:03:44;;;;;;;4.77;3.83;;;5.10;14.30;;;;;;5107219;28;20190;-72
2023/03/29 01:06:16;;;;;;;4.43;3.60;;;5.10;7.90;;;;;;5068862;28;20272;-72
2023/03/29 01:08:52;;;;;;;6.40;3.63;;;5.00;10.80;;;;;;5102263;28;20190;-72
2023/03/29 01:11:27;;;;;;;6.13;4.03;;;5.00;12.20;;;;;;5107039;28;20196;-74
2023/03/29 01:14:02;;;;;;;6.10;4.23;;;5.00;14.80;;;;;;5108518;28;20205;-71
2023/03/29 01:16:31;;;;;;;5.00;3.70;;;4.90;14.80;;;;;;5080511;28;20208;-71
2023/03/29 01:19:01;;;;;;;6.50;4.40;;;4.90;12.10;;;;;;5087257;28;20198;-71
2023/03/29 01:21:36;;;;;;;7.97;3.53;;;4.90;14.60;;;;;;5087129;28;20206;-72
2023/03/29 01:24:23;;;;;;;5.57;3.70;;;5.00;13.90;;;;;;5095140;28;20196;-71
2023/03/29 01:27:12;;;;;;;4.53;3.83;;;5.00;2.10;;;;;;5105962;28;20300;-73
2023/03/29 01:29:56;;;;;;;6.03;4.30;;;5.00;1.00;;;;;;5063282;28;20225;-74
2023/03/29 01:32:34;;;;;;;6.37;3.90;;;5.00;4.60;;;;;;5108583;28;20217;-73
2023/03/29 01:35:09;;;;;;;5.60;4.23;;;5.10;1.00;;;;;;5098103;28;20604;-74
2023/03/29 01:37:40;;;;;;;5.00;3.90;;;5.10;1.00;;;;;;5083752;28;20185;-72
2023/03/29 01:40:07;;;;;;;4.50;3.70;;;5.10;1.00;;;;;;5078641;28;20209;-73
2023/03/29 01:42:53;;;;;;;6.23;3.90;;;5.10;1.00;;;;;;5086550;28;20223;-73
2023/03/29 01:45:35;;;;;;;6.43;3.60;;;5.10;2.50;;;;;;5099180;28;20226;-73
2023/03/29 01:48:02;;;;;;;8.43;4.37;;;5.10;1.00;;;;;;5073651;28;20300;-73
2023/03/29 01:50:32;;;;;;;5.50;3.90;;;5.10;1.00;;;;;;5109584;28;20185;-73
2023/03/29 01:53:18;;;;;;;9.07;4.17;;;5.00;1.00;;;;;;5109299;28;20230;-74
2023/03/29 01:55:54;;;;;;;4.50;4.00;;;5.00;1.00;;;;;;5081222;28;20282;-73
2023/03/29 01:58:30;;;;;;;5.07;3.87;;;5.10;1.00;;;;;;5090294;28;20831;-72
2023/03/29 02:00:59;;;;;;;9.67;4.20;;;5.10;1.00;;;;;;5086802;28;20225;-75
2023/03/29 02:03:29;;;;;;;5.57;3.83;;;5.00;1.00;;;;;;5089246;28;20274;-73
2023/03/29 02:05:58;;;;;;;6.27;4.00;;;5.20;1.00;;;;;;5090497;28;20202;-73
2023/03/29 02:08:28;;;;;;;5.77;3.57;;;5.20;1.00;;;;;;5089872;28;20220;-72
2023/03/29 02:10:56;;;;;;;5.13;4.33;;;5.20;1.00;;;;;;5087075;28;20249;-73
2023/03/29 02:13:23;;;;;;;6.50;4.43;;;5.20;1.00;;;;;;5108594;28;20268;-82
2023/03/29 02:15:50;;;;;;;5.47;3.93;;;5.20;1.00;;;;;;5089999;28;20202;-74
2023/03/29 02:18:19;;;;;;;5.83;3.93;;;5.30;1.00;;;;;;5108763;28;20254;-72
2023/03/29 02:20:49;;;;;;;4.73;3.97;;;5.30;1.00;;;;;;5095441;28;20238;-71
2023/03/29 02:23:47;;;;;;;5.50;3.93;;;5.30;1.00;;;;;;5101081;28;20220;-71
2023/03/29 02:26:16;;;;;;;4.70;3.63;;;5.30;1.00;;;;;;5093070;28;20328;-72
2023/03/29 02:28:45;;;;;;;8.70;3.97;;;5.30;1.00;;;;;;5112806;28;20196;-70
2023/03/29 02:31:22;;;;;;;7.70;4.20;;;5.40;1.00;;;;;;5097873;28;20201;-71
2023/03/29 02:34:02;;;;;;;4.33;3.57;;;5.30;1.00;;;;;;5075271;28;20205;-70
2023/03/29 02:36:40;;;;;;;5.33;3.90;;;5.40;1.00;;;;;;5094866;28;20209;-72
2023/03/29 02:39:12;;;;;;;5.33;4.20;;;5.30;1.00;;;;;;5106325;28;20193;-73
2023/03/29 02:41:42;;;;;;;6.33;3.97;;;5.30;1.00;;;;;;5096168;28;20364;-72
2023/03/29 02:44:14;;;;;;;6.00;3.90;;;5.30;1.00;;;;;;5085633;28;20289;-71
2023/03/29 02:46:42;;;;;;;4.13;3.57;;;5.30;1.00;;;;;;5085115;28;20221;-71
2023/03/29 02:49:11;;;;;;;7.07;3.70;;;5.30;1.00;;;;;;5093605;28;20606;-70
2023/03/29 02:51:38;;;;;;;9.07;5.90;;;5.30;1.00;;;;;;5091734;28;20205;-73
2023/03/29 02:54:08;;;;;;;13.90;8.13;;;5.30;1.00;;;;;;5093897;28;20197;-74
2023/03/29 02:56:43;;;;;;;15.63;10.30;;;5.30;1.00;;;;;;5092128;28;20213;-72
2023/03/29 02:59:11;;;;;;;11.10;8.10;;;5.30;1.00;;;;;;5093239;28;20201;-74
2023/03/29 03:01:43;;;;;;;14.17;7.90;;;5.40;1.00;;;;;;5083541;28;20230;-73
2023/03/29 03:04:11;;;;;;;12.93;7.93;;;5.40;1.00;;;;;;5092508;28;20219;-72
2023/03/29 03:06:39;;;;;;;13.13;7.67;;;5.40;1.00;;;;;;5067907;28;20229;-72
2023/03/29 03:09:09;;;;;;;6.33;4.00;;;5.40;1.00;;;;;;5075061;28;20642;-72
2023/03/29 03:11:39;;;;;;;12.57;7.70;;;5.40;1.00;;;;;;5094085;28;20205;-71
2023/03/29 03:14:06;;;;;;;6.17;4.40;;;5.40;1.00;;;;;;5100658;28;20246;-74
2023/03/29 03:16:34;;;;;;;7.53;4.23;;;5.40;1.00;;;;;;5076050;28;20221;-73
2023/03/29 03:19:01;;;;;;;9.20;4.73;;;5.40;1.00;;;;;;5093741;28;20193;-71
2023/03/29 03:21:28;;;;;;;5.47;3.63;;;5.50;1.00;;;;;;5093382;28;20755;-72
2023/03/29 03:23:55;;;;;;;5.23;4.00;;;5.50;1.00;;;;;;5093465;28;20294;-70
2023/03/29 03:26:28;;;;;;;8.00;4.13;;;5.50;1.00;;;;;;5088250;28;20220;-70
2023/03/29 03:28:56;;;;;;;6.27;3.37;;;5.50;1.00;;;;;;5091052;28;20280;-71
2023/03/29 03:31:51;;;;;;;4.40;3.40;;;5.50;1.00;;;;;;5087368;28;20193;-71
2023/03/29 03:34:49;;;;;;;5.10;3.37;;;5.50;1.00;;;;;;5089526;28;20205;-72
2023/03/29 03:37:17;;;;;;;4.37;3.23;;;5.50;1.00;;;;;;5090569;28;20285;-71
2023/03/29 03:39:43;;;;;;;4.30;3.40;;;5.60;1.00;;;;;;5091043;28;20276;-72
2023/03/29 03:42:11;;;;;;;4.90;3.10;;;5.60;1.00;;;;;;5100959;28;20689;-72
2023/03/29 03:44:42;;;;;;;5.93;3.00;;;5.60;1.00;;;;;;5092042;28;20648;-72
2023/03/29 03:47:36;;;;;;;5.03;3.13;;;5.70;1.00;;;;;;5077426;28;20237;-75
2023/03/29 03:50:18;;;;;;;5.30;3.00;;;5.80;1.00;;;;;;5089702;28;20243;-72
2023/03/29 03:52:45;;;;;;;4.50;3.10;;;5.90;1.00;;;;;;5088485;28;20289;-70
2023/03/29 03:55:13;;;;;;;4.43;2.63;;;5.90;1.00;;;;;;5086704;28;20208;-71
2023/03/29 03:57:50;;;;;;;3.97;2.90;;;6.00;1.00;;;;;;5096666;28;20217;-71
2023/03/29 04:00:19;;;;;;;3.03;2.50;;;6.10;1.00;;;;;;5089674;28;20640;-71
2023/03/29 04:02:57;;;;;;;5.77;2.90;;;6.10;1.00;;;;;;5088112;28;20193;-71
2023/03/29 04:05:24;;;;;;;7.07;3.20;;;6.10;1.00;;;;;;5105987;28;20251;-75
2023/03/29 04:07:53;;;;;;;3.23;2.80;;;6.10;1.00;;;;;;5091542;28;20216;-70
2023/03/29 04:10:34;;;;;;;5.17;2.77;;;6.10;1.00;;;;;;5088767;28;20281;-71
2023/03/29 04:13:12;;;;;;;5.10;3.47;;;6.10;1.00;;;;;;5090581;28;20205;-71
2023/03/29 04:15:59;;;;;;;4.60;2.80;;;6.10;1.00;;;;;;5091709;28;20598;-71
2023/03/29 04:18:28;;;;;;;4.60;2.67;;;6.10;1.00;;;;;;5091770;28;20548;-71
2023/03/29 04:20:57;;;;;;;9.07;3.10;;;6.20;1.00;;;;;;5067093;28;20205;-71
2023/03/29 04:23:27;;;;;;;3.83;2.70;;;6.20;1.00;;;;;;5090412;28;20669;-71
2023/03/29 04:25:58;;;;;;;5.33;3.00;;;6.20;1.00;;;;;;5086378;28;20225;-72
2023/03/29 04:28:43;;;;;;;5.03;3.10;;;6.20;1.00;;;;;;5103047;28;20201;-71
2023/03/29 04:31:18;;;;;;;4.43;2.47;;;6.20;1.00;;;;;;5063626;28;20216;-72
2023/03/29 04:34:24;;;;;;;7.03;2.40;;;6.20;1.00;;;;;;5081938;28;20225;-72
2023/03/29 04:36:53;;;;;;;3.20;2.20;;;6.20;1.00;;;;;;5072964;28;20194;-72
2023/03/29 04:39:30;;;;;;;3.43;2.37;;;6.30;1.00;;;;;;5080695;28;20210;-71
2023/03/29 04:41:58;;;;;;;4.53;2.50;;;6.30;1.00;;;;;;5062434;28;21058;-72
2023/03/29 04:44:28;;;;;;;5.93;2.60;;;6.30;1.00;;;;;;5082890;28;20681;-72
2023/03/29 04:46:57;;;;;;;5.50;2.63;;;6.30;1.00;;;;;;5092028;28;20213;-70
2023/03/29 04:49:42;;;;;;;4.67;2.80;;;6.40;1.00;;;;;;5110866;28;20216;-71
2023/03/29 04:52:17;;;;;;;2.90;2.30;;;6.40;1.00;;;;;;5092835;28;20204;-72
2023/03/29 04:54:44;;;;;;;4.67;2.60;;;6.40;1.00;;;;;;5101529;28;20196;-72
2023/03/29 04:57:22;;;;;;;3.00;2.53;;;6.50;1.00;;;;;;5064627;28;20600;-72
2023/03/29 05:00:00;;;;;;;5.20;2.77;;;6.50;1.00;;;;;;5098665;28;20190;-72
2023/03/29 05:02:53;;;;;;;2.77;2.47;;;6.50;1.00;;;;;;5085236;28;20251;-71
2023/03/29 05:05:21;;;;;;;4.33;3.00;;;6.50;1.00;;;;;;5089302;28;20221;-72
2023/03/29 05:07:50;;;;;;;3.57;2.70;;;6.50;1.00;;;;;;5080205;28;20266;-70
2023/03/29 05:10:22;;;;;;;4.00;2.90;;;6.60;1.00;;;;;;5084967;28;20580;-70
2023/03/29 05:12:52;;;;;;;4.10;2.70;;;6.60;1.00;;;;;;5063767;28;20707;-72
2023/03/29 05:15:21;;;;;;;3.53;2.60;;;6.60;1.00;;;;;;5062012;28;20206;-71
2023/03/29 05:17:48;;;;;;;3.27;2.50;;;6.60;1.00;;;;;;5071000;28;20198;-70
2023/03/29 05:20:16;;;;;;;4.87;3.10;;;6.60;1.00;;;;;;5070506;28;20201;-71
2023/03/29 05:22:45;;;;;;;5.70;2.87;;;6.70;1.00;;;;;;5084252;28;20205;-75
2023/03/29 05:25:25;;;;;;;4.07;2.80;;;6.70;1.00;;;;;;5100720;28;20801;-80
2023/03/29 05:27:52;;;;;;;4.33;2.93;;;6.70;1.00;;;;;;5078265;28;20209;-72
2023/03/29 05:30:19;;;;;;;4.37;2.83;;;6.70;1.00;;;;;;5087421;28;20189;-73
2023/03/29 05:32:56;;;;;;;7.00;3.10;;;6.80;1.00;;;;;;5074059;28;21349;-70
2023/03/29 05:35:25;;;;;;;3.60;2.80;;;6.80;1.00;;;;;;5102199;28;20364;-70
2023/03/29 05:37:54;;;;;;;6.20;3.67;;;6.80;1.00;;;;;;5060556;28;20232;-70
2023/03/29 05:40:21;;;;;;;6.83;3.20;;;6.80;1.00;;;;;;5086385;28;20190;-70
2023/03/29 05:43:11;;;;;;;6.50;3.10;;;6.80;1.00;;;;;;5104475;28;20197;-69
2023/03/29 05:45:38;;;;;;;6.10;3.67;;;6.80;1.00;;;;;;5085838;28;20284;-70
2023/03/29 05:48:05;;;;;;;5.97;3.53;;;6.90;1.00;;;;;;5086131;28;20225;-70
2023/03/29 05:50:33;;;;;;;6.57;3.60;;;6.90;1.00;;;;;;5079184;28;20656;-71
2023/03/29 05:53:00;;;;;;;11.07;5.10;;;6.90;1.00;;;;;;5082408;28;20198;-72
2023/03/29 05:55:27;;;;;;;10.13;3.67;;;6.90;1.00;;;;;;5096705;28;20228;-71
2023/03/29 05:57:54;;;;;;;10.07;4.40;;;6.90;1.00;;;;;;5082745;28;20212;-70
2023/03/29 06:00:25;;;;;;;9.13;3.87;;;7.00;1.00;;;;;;5100533;28;20742;-70
2023/03/29 06:03:06;;;;;;;6.70;3.10;;;7.00;1.00;;;;;;5083349;28;20205;-71
2023/03/29 06:05:48;;;;;;;7.70;3.20;;;7.00;1.00;;;;;;5088121;28;20242;-70
2023/03/29 06:08:16;;;;;;;9.00;4.20;;;7.00;1.00;;;;;;5080704;28;20600;-70
2023/03/29 06:11:16;;;;;;;8.83;3.80;;;7.00;1.00;;;;;;5060176;28;20205;-71
2023/03/29 06:14:02;;;;;;;6.80;3.40;;;7.00;1.00;;;;;;5102308;28;20707;-70
2023/03/29 06:16:31;;;;;;;7.20;3.37;;;7.00;1.00;;;;;;5104810;28;20195;-70
2023/03/29 06:18:58;;;;;;;7.03;3.10;;;7.00;1.00;;;;;;5105414;28;20687;-70
2023/03/29 06:21:27;;;;;;;5.17;2.90;;;7.00;1.00;;;;;;5085453;28;20210;-70
2023/03/29 06:23:54;;;;;;;4.87;3.60;;;7.00;1.00;;;;;;5064717;28;20197;-72
2023/03/29 06:26:22;;;;;;;6.87;3.53;;;7.10;1.00;;;;;;5058973;28;20254;-70
2023/03/29 06:28:50;;;;;;;9.13;3.57;;;7.10;1.00;;;;;;5070022;28;20190;-70
2023/03/29 06:31:19;;;;;;;6.70;3.50;;;7.20;1.00;;;;;;5080683;28;20691;-70
2023/03/29 06:33:49;;;;;;;7.03;3.40;;;7.20;1.00;;;;;;5080026;28;20569;-73
2023/03/29 06:36:33;;;;;;;7.00;3.60;;;7.20;1.00;;;;;;5080312;28;20252;-70
2023/03/29 06:39:04;;;;;;;7.67;3.60;;;7.30;1.00;;;;;;5068440;28;20539;-83
2023/03/29 06:41:52;;;;;;;5.90;3.83;;;7.30;1.00;;;;;;5054307;28;20210;-71
2023/03/29 06:44:37;;;;;;;6.57;3.30;;;7.30;1.00;;;;;;5103333;28;20808;-71
2023/03/29 06:47:11;;;;;;;4.97;3.40;;;7.40;1.00;;;;;;5094352;28;20230;-70
2023/03/29 06:49:38;;;;;;;8.33;3.93;;;7.40;1.00;;;;;;5080299;28;20194;-70
2023/03/29 06:52:28;;;;;;;6.07;3.30;;;7.50;1.00;;;;;;5107299;28;20194;-70
2023/03/29 06:54:55;;;;;;;6.60;3.57;;;7.70;1.00;;;;;;5087420;28;20190;-70
2023/03/29 06:57:24;;;;;;;5.00;3.40;;;7.70;1.00;;;;;;5081848;28;20207;-80
2023/03/29 06:59:52;;;;;;;8.70;3.97;;;7.50;1.00;;;;;;5081272;28;20197;-72
2023/03/29 07:02:22;;;;;;;5.20;3.97;;;7.50;1.00;;;;;;5089890;28;20217;-72
2023/03/29 07:05:05;;;;;;;7.17;4.13;;;7.60;1.00;;;;;;5082527;28;20244;-73
2023/03/29 07:11:04;;;;;;;10.53;4.00;;;7.70;1.00;;;;;;5085097;28;20611;-72
2023/03/29 07:13:51;;;;;;;5.77;4.07;;;7.90;1.00;;;;;;5110266;28;20205;-71
2023/03/29 07:16:19;;;;;;;5.00;4.00;;;7.90;1.00;;;;;;5090295;28;20190;-73
2023/03/29 07:18:46;;;;;;;8.00;4.33;;;7.80;1.00;;;;;;5104926;28;20779;-70
2023/03/29 07:21:27;;;;;;;6.77;3.93;;;8.00;1.00;;;;;;5086487;28;20193;-72
2023/03/29 07:23:59;;;;;;;11.23;5.23;;;8.00;1.00;;;;;;5069250;28;20194;-71
2023/03/29 07:26:27;;;;;;;6.07;4.27;;;8.20;1.00;;;;;;5096682;28;20621;-70
2023/03/29 07:28:57;;;;;;;8.80;3.80;;;8.20;1.00;;;;;;5069301;28;20193;-70
2023/03/29 07:31:24;;;;;;;7.03;4.10;;;8.40;1.00;;;;;;5084715;28;20209;-71
2023/03/29 07:33:59;;;;;;;26.97;17.00;;;8.50;1.00;;;;;;5083575;28;20189;-71
2023/03/29 07:36:27;;;;;;;9.33;5.30;;;8.50;1.00;;;;;;5091209;28;20214;-71
2023/03/29 07:38:55;;;;;;;5.97;4.40;;;8.60;1.00;;;;;;5075068;28;20239;-71
2023/03/29 07:41:25;;;;;;;9.67;4.83;;;8.60;1.00;;;;;;5084873;28;20194;-70
2023/03/29 07:44:07;;;;;;;6.23;3.67;;;8.70;1.00;;;;;;5088813;28;20206;-71
2023/03/29 07:46:35;;;;;;;8.13;5.30;;;8.80;1.00;;;;;;5107951;28;20189;-71
2023/03/29 07:49:03;;;;;;;7.27;4.20;;;8.80;1.00;;;;;;5091833;28;20316;-72
2023/03/29 07:51:30;;;;;;;6.83;4.23;;;9.00;1.00;;;;;;5083612;28;20208;-76
2023/03/29 07:54:05;;;;;;;10.40;5.17;;;9.20;1.00;;;;;;5100034;28;20684;-71
2023/03/29 07:56:51;;;;;;;8.67;4.23;;;9.30;1.00;;;;;;5092873;28;20204;-72
2023/03/29 07:59:30;;;;;;;9.30;3.83;;;9.50;1.00;;;;;;5107682;28;20290;-72
2023/03/29 08:02:24;;;;;;;7.77;3.73;;;9.70;1.00;;;;;;5105248;28;20193;-71
2023/03/29 08:04:55;;;;;;;6.30;4.67;;;9.80;1.00;;;;;;5081103;28;20201;-71
2023/03/29 08:07:45;;;;;;;10.27;4.37;;;9.70;1.00;;;;;;5090825;28;20220;-71
2023/03/29 08:10:33;;;;;;;8.70;4.30;;;9.70;1.00;;;;;;5087799;28;20198;-71
2023/03/29 08:13:20;;;;;;;5.17;3.80;;;9.60;1.00;;;;;;5102699;28;20224;-71
2023/03/29 08:16:07;;;;;;;11.07;4.30;;;9.60;1.00;;;;;;5104336;28;20206;-71
2023/03/29 08:18:39;;;;;;;6.77;4.00;;;9.60;1.00;;;;;;5091923;28;20210;-72
2023/03/29 08:21:07;;;;;;;8.23;3.93;;;9.80;1.00;;;;;;5082940;28;20342;-74
2023/03/29 08:23:34;;;;;;;5.80;3.37;;;9.90;1.00;;;;;;5090670;28;20198;-72
2023/03/29 08:26:10;;;;;;;7.83;3.80;;;10.10;1.00;;;;;;5089939;28;20201;-71
2023/03/29 08:28:38;;;;;;;8.80;4.20;;;10.20;1.00;;;;;;5066957;28;20252;-72
2023/03/29 08:31:08;;;;;;;11.00;3.83;;;10.00;1.00;;;;;;5088533;28;20197;-77
2023/03/29 08:33:38;;;;;;;9.33;3.63;;;10.20;1.00;;;;;;5091085;28;20300;-72
2023/03/29 08:36:26;;;;;;;9.47;4.23;;;10.10;1.00;;;;;;5094763;28;20572;-71
2023/03/29 08:38:56;;;;;;;7.17;3.97;;;10.30;1.00;;;;;;5091642;28;20276;-74
2023/03/29 08:41:33;;;;;;;8.13;3.30;;;10.60;1.00;;;;;;5088171;28;20247;-72
2023/03/29 08:44:10;;;;;;;8.70;4.53;;;10.80;1.00;;;;;;5107213;28;20535;-72
2023/03/29 08:47:19;;;;;;;7.87;3.70;;;10.80;1.00;;;;;;5091615;28;20202;-73
2023/03/29 08:49:51;;;;;;;7.33;3.50;;;11.30;1.00;;;;;;5099884;28;20560;-72
2023/03/29 08:52:47;;;;;;;8.43;3.80;;;11.20;1.00;;;;;;5097626;28;20249;-71
2023/03/29 08:55:32;;;;;;;6.37;3.87;;;11.20;1.00;;;;;;5090897;28;20219;-71
2023/03/29 08:58:23;;;;;;;7.13;3.30;;;11.30;1.00;;;;;;5066691;28;20221;-71
2023/03/29 09:00:56;;;;;;;6.17;3.43;;;11.30;1.00;;;;;;5083637;28;20241;-71
2023/03/29 09:03:36;;;;;;;4.63;2.90;;;11.30;1.00;;;;;;5082421;28;20703;-71
2023/03/29 09:06:14;;;;;;;5.03;2.97;;;11.50;1.00;;;;;;5098730;28;20198;-71
2023/03/29 09:08:47;;;;;;;7.57;3.80;;;11.10;1.00;;;;;;5090870;28;20237;-71
2023/03/29 09:11:23;;;;;;;6.80;4.30;;;11.10;1.00;;;;;;5081976;28;20201;-71
2023/03/29 09:14:15;;;;;;;7.40;3.83;;;10.50;1.00;;;;;;5093391;28;20852;-74
2023/03/29 09:17:34;;;;;;;9.27;3.40;;;11.00;1.00;;;;;;5096297;28;20225;-71
2023/03/29 09:20:06;;;;;;;4.37;3.10;;;11.80;1.00;;;;;;5059952;28;20214;-71
2023/03/29 09:22:56;;;;;;;8.30;3.80;;;11.90;1.00;;;;;;5083233;28;20255;-70
2023/03/29 09:26:05;;;;;;;5.60;3.00;;;11.70;1.00;;;;;;5083670;28;20193;-71
2023/03/29 09:29:16;;;;;;;8.43;3.40;;;11.70;1.00;;;;;;5075939;28;20834;-70
2023/03/29 09:31:44;;;;;;;6.30;3.40;;;11.70;1.00;;;;;;5065211;28;20201;-71
2023/03/29 09:34:17;;;;;;;5.10;3.10;;;11.60;1.00;;;;;;5067693;28;20210;-71
2023/03/29 09:37:09;;;;;;;3.70;2.93;;;11.60;1.00;;;;;;5089671;28;20198;-71
2023/03/29 09:39:39;;;;;;;5.80;3.10;;;11.60;1.00;;;;;;5083616;28;20186;-71
2023/03/29 09:42:13;;;;;;;5.47;2.90;;;11.50;1.00;;;;;;5080333;28;20287;-71
2023/03/29 09:44:49;;;;;;;8.63;3.33;;;11.60;1.00;;;;;;5079583;28;20228;-71
2023/03/29 09:47:43;;;;;;;8.37;3.20;;;11.90;1.00;;;;;;5079382;28;20713;-71
2023/03/29 09:50:34;;;;;;;5.93;3.27;;;11.70;1.00;;;;;;5094713;28;20656;-71
2023/03/29 09:53:04;;;;;;;7.37;3.23;;;11.80;1.00;;;;;;5087285;28;20197;-75
2023/03/29 09:55:38;;;;;;;8.40;4.00;;;11.80;1.00;;;;;;5090600;28;20560;-73
2023/03/29 09:58:16;;;;;;;4.67;3.10;;;11.90;1.00;;;;;;5077729;28;20198;-72
2023/03/29 10:00:49;;;;;;;6.83;3.70;;;11.70;1.00;;;;;;5079863;28;20236;-76
2023/03/29 10:03:20;;;;;;;10.17;4.07;;;11.80;1.00;;;;;;5087427;28;20200;-71
2023/03/29 10:06:10;;;;;;;8.67;3.90;;;11.50;1.00;;;;;;5104854;28;20204;-78
2023/03/29 10:08:48;;;;;;;9.10;4.43;;;11.40;1.00;;;;;;5096933;28;20228;-71
2023/03/29 10:11:26;;;;;;;8.53;4.90;;;11.10;1.00;;;;;;5080287;28;20676;-74
2023/03/29 10:13:56;;;;;;;7.37;4.10;;;10.90;1.00;;;;;;5103996;28;20375;-72
2023/03/29 10:16:28;;;;;;;9.57;4.73;;;10.80;1.00;;;;;;5106261;28;20190;-70
2023/03/29 10:18:55;;;;;;;13.13;5.10;;;10.80;1.00;;;;;;5090705;28;20764;-71
2023/03/29 10:21:22;;;;;;;9.10;5.07;;;10.90;1.00;;;;;;5104138;28;20284;-70
2023/03/29 10:23:57;;;;;;;9.73;4.87;;;10.70;1.00;;;;;;5087515;28;20215;-71
2023/03/29 10:26:31;;;;;;;12.17;5.27;;;10.80;1.00;;;;;;5089318;28;20592;-72
2023/03/29 10:29:01;;;;;;;9.20;5.03;;;10.70;1.00;;;;;;5094136;28;20216;-71
2023/03/29 10:31:32;;;;;;;11.10;4.70;;;11.00;1.00;;;;;;5105918;28;20264;-71
2023/03/29 10:34:06;;;;;;;9.17;4.73;;;11.50;1.00;;;;;;5094276;28;20190;-71
2023/03/29 10:36:33;;;;;;;9.50;4.40;;;12.30;1.00;;;;;;5088813;28;20738;-71
2023/03/29 10:39:03;;;;;;;10.95;4.40;;;14.20;1.00;;;;;;5107057;28;20221;-71
2023/03/29 10:41:34;;;;;;;8.73;4.18;;;14.50;1.00;;;;;;5108804;28;20181;-71
2023/03/29 10:44:01;;;;;;;7.40;3.97;;;13.70;1.00;;;;;;5068202;28;20229;-72
2023/03/29 10:46:31;;;;;;;8.82;4.22;;;13.50;1.00;;;;;;5082480;28;20225;-71
2023/03/29 10:49:08;;;;;;;9.50;4.33;;;12.80;1.00;;;;;;5108642;28;20225;-70
2023/03/29 10:51:36;;;;;;;10.93;4.15;;;12.90;1.00;;;;;;5106695;28;20264;-71
2023/03/29 10:54:05;;;;;;;8.02;4.53;;;12.80;1.00;;;;;;5091162;28;20225;-73
2023/03/29 10:56:48;;;;;;;9.13;4.20;;;12.40;1.00;;;;;;5096855;28;20198;-70
2023/03/29 10:59:45;;;;;;;10.38;4.43;;;12.90;1.00;;;;;;5100477;28;20190;-70
2023/03/29 11:02:12;;;;;;;6.00;4.25;;;13.20;1.00;;;;;;5090759;28;20276;-71
2023/03/29 11:05:01;;;;;;;7.43;4.60;;;13.20;1.00;;;;;;5106633;28;20198;-71
2023/03/29 11:07:39;;;;;;;7.57;4.95;;;13.10;1.00;;;;;;5102478;28;20190;-70
2023/03/29 11:10:23;;;;;;;16.10;10.17;;;12.60;1.00;;;;;;5104983;28;20198;-70
2023/03/29 11:13:12;;;;;;;12.60;6.33;;;12.20;1.00;;;;;;5080404;28;20692;-72
2023/03/29 11:15:45;;;;;;;10.87;5.50;;;12.10;1.00;;;;;;5110887;28;20190;-71
2023/03/29 11:18:12;;;;;;;15.70;10.13;;;12.20;1.00;;;;;;5104164;28;20189;-71
2023/03/29 11:21:25;;;;;;;12.73;6.37;;;12.20;1.00;;;;;;5107556;28;20197;-71
2023/03/29 11:24:27;;;;;;;9.40;5.10;;;12.20;1.00;;;;;;5105724;28;20209;-71
2023/03/29 11:27:00;;;;;;;9.10;4.83;;;12.20;1.00;;;;;;5106760;28;20655;-77
2023/03/29 11:29:34;;;;;;;8.90;4.47;;;12.70;1.00;;;;;;5104409;28;20665;-71
2023/03/29 11:32:29;;;;;;;8.03;4.37;;;12.50;1.00;;;;;;5104565;28;20212;-72
2023/03/29 11:35:26;;;;;;;8.27;4.80;;;12.60;1.00;;;;;;5110413;28;20200;-71
2023/03/29 11:38:04;;;;;;;7.30;4.63;;;12.40;1.00;;;;;;5083100;28;20194;-73
2023/03/29 11:40:57;;;;;;;6.27;4.10;;;12.90;1.00;;;;;;5091135;28;20201;-71
2023/03/29 11:43:37;;;;;;;8.87;4.67;;;12.80;1.00;;;;;;5097941;28;20680;-73
2023/03/29 11:46:24;;;;;;;6.73;4.00;;;12.80;1.00;;;;;;5107841;28;20186;-72
2023/03/29 11:49:13;;;;;;;10.50;4.43;;;12.80;1.00;;;;;;5109764;28;20917;-73
2023/03/29 11:51:49;;;;;;;7.20;4.10;;;13.00;1.00;;;;;;5077889;28;20198;-70
2023/03/29 11:54:44;;;;;;;6.37;3.63;;;13.20;1.00;;;;;;5083667;28;20234;-72
2023/03/29 11:57:32;;;;;;;8.57;3.87;;;13.30;1.00;;;;;;5099183;28;20572;-71
2023/03/29 11:59:59;;;;;;;6.40;3.70;;;13.60;1.00;;;;;;5110540;28;20197;-71
2023/03/29 12:02:36;;;;;;;6.88;3.80;;;13.70;1.00;;;;;;5064280;28;20684;-71
2023/03/29 12:05:21;;;;;;;5.40;3.92;;;14.20;1.00;;;;;;5074028;28;20195;-72
2023/03/29 12:08:15;;;;;;;6.00;3.33;;;14.50;1.00;;;;;;5088960;28;20189;-71
2023/03/29 12:10:56;;;;;;;6.85;3.35;;;14.50;1.00;;;;;;5101725;28;20565;-72
2023/03/29 12:13:44;;;;;;;4.65;3.35;;;15.70;1.00;;;;;;5102978;28;20703;-71
2023/03/29 12:16:32;;;;;;;5.30;3.33;;;15.50;1.00;;;;;;5103919;28;20255;-72
2023/03/29 12:19:05;;;;;;;5.28;3.40;;;15.00;1.00;;;;;;5084434;28;20635;-72
2023/03/29 12:21:35;;;;;;;5.40;2.80;;;16.30;1.00;;;;;;5105291;28;20619;-71
2023/03/29 12:24:03;;;;;;;7.72;3.72;;;16.50;1.00;;;;;;5096785;28;20205;-72
2023/03/29 12:27:01;;;;;;;6.47;3.22;;;15.60;1.00;;;;;;5088481;28;20205;-72
2023/03/29 12:29:34;;;;;;;3.90;3.03;;;16.20;1.00;;;;;;5106851;28;20700;-72
2023/03/29 12:32:29;;;;;;;7.22;3.00;;;16.90;1.00;;;;;;5087510;28;20274;-72
2023/03/29 12:35:25;;;;;;;4.85;2.88;;;16.60;1.00;;;;;;5068148;28;20217;-72
2023/03/29 12:38:18;;;;;;;6.25;3.60;;;15.90;1.00;;;;;;5097559;28;20204;-75
2023/03/29 12:41:20;;;;;;;5.38;3.20;;;15.80;1.00;;;;;;5104924;28;20293;-71
2023/03/29 12:44:00;;;;;;;5.30;3.20;;;16.40;1.00;;;;;;5103770;28;20263;-72
2023/03/29 12:46:57;;;;;;;7.78;3.30;;;16.50;1.00;;;;;;5109317;28;20189;-70
2023/03/29 12:49:34;;;;;;;6.43;2.88;;;15.90;1.00;;;;;;5079964;28;20205;-71
2023/03/29 12:52:07;;;;;;;6.50;3.08;;;16.40;1.00;;;;;;5081937;28;20904;-71
2023/03/29 12:54:34;;;;;;;9.75;3.40;;;16.30;1.00;;;;;;5108432;28;20190;-71
2023/03/29 12:57:19;;;;;;;5.72;3.17;;;16.40;1.00;;;;;;5086905;28;20220;-70
2023/03/29 12:59:48;;;;;;;4.70;2.95;;;15.70;1.00;;;;;;5091736;28;20289;-71
2023/03/29 13:02:16;;;;;;;7.50;3.55;;;15.60;1.00;;;;;;5108666;28;20308;-71
2023/03/29 13:04:51;;;;;;;7.72;3.35;;;15.60;1.00;;;;;;5109441;28;20203;-73
2023/03/29 13:07:21;;;;;;;4.88;3.13;;;15.00;1.00;;;;;;5100639;28;20285;-70
2023/03/29 13:09:50;;;;;;;7.60;3.50;;;15.10;1.00;;;;;;5071742;28;20198;-74
2023/03/29 13:12:27;;;;;;;7.93;3.10;;;15.00;1.00;;;;;;5106868;28;20198;-72
2023/03/29 13:15:01;;;;;;;5.22;3.15;;;15.10;1.00;;;;;;5106152;28;20198;-70
2023/03/29 13:18:11;;;;;;;7.25;3.00;;;14.90;1.00;;;;;;5110065;28;20242;-71
2023/03/29 13:20:53;;;;;;;4.80;2.85;;;15.00;1.00;;;;;;5108529;28;20197;-70
2023/03/29 13:23:38;;;;;;;6.57;3.30;;;15.20;1.00;;;;;;5094691;28;20223;-73
2023/03/29 13:26:26;;;;;;;7.93;3.42;;;15.40;1.00;;;;;;5107026;28;20268;-70
2023/03/29 13:29:13;;;;;;;4.82;2.90;;;15.40;1.00;;;;;;5088040;28;20295;-71
2023/03/29 13:31:59;;;;;;;6.90;3.00;;;15.40;1.00;;;;;;5090599;28;20202;-70
2023/03/29 13:34:49;;;;;;;7.28;3.28;;;15.50;1.00;;;;;;5094499;28;20198;-70
2023/03/29 13:37:35;;;;;;;7.22;3.15;;;15.20;1.00;;;;;;5073091;28;20277;-73
2023/03/29 13:40:29;;;;;;;4.85;2.65;;;15.30;1.00;;;;;;5092291;28;20194;-71
2023/03/29 13:42:59;;;;;;;8.57;3.03;;;15.10;1.00;;;;;;5087751;28;20202;-71
2023/03/29 13:45:31;;;;;;;5.97;3.30;;;14.90;1.00;;;;;;5073272;28;20198;-71
2023/03/29 13:48:23;;;;;;;5.40;3.28;;;14.90;1.00;;;;;;5093458;28;20244;-71
2023/03/29 13:51:18;;;;;;;6.40;3.08;;;14.60;1.00;;;;;;5070677;28;20730;-74
2023/03/29 13:53:59;;;;;;;7.28;2.85;;;14.50;1.00;;;;;;5090940;28;20713;-71